This is the latest recevied weather packets stored in our database for station/object IZ1UQG-N2. If no packets are shown the sender has not sent any weather packets the latest 10 day(s).
| Time | Temp. | Humidity | Pressure | Rain* | Wind** | Luminosity | Snow |
|---|---|---|---|---|---|---|---|
| 1777626328 | 15° C | 42% | 1026.5 hPa | 0 mm | - | 318 W/m² | - |
| 1777626308 | 15° C | 42% | 1026.5 hPa | 0 mm | - | 318 W/m² | - |
| 1777626268 | 15° C | 43% | 1026.6 hPa | 0 mm | - | 316 W/m² | - |
| 1777626207 | 15° C | 41% | 1026.5 hPa | 0 mm | - | 315 W/m² | - |
| 1777626147 | 15° C | 41% | 1026.6 hPa | 0 mm | - | 315 W/m² | - |
| 1777626127 | 15° C | 41% | 1026.6 hPa | 0 mm | - | 315 W/m² | - |
| 1777626099 | 15° C | 43% | 1026.5 hPa | 0 mm | - | 313 W/m² | - |
| 1777626087 | 15° C | 41% | 1026.6 hPa | 0 mm | - | 315 W/m² | - |
| 1777626039 | 15° C | 43% | 1026.6 hPa | 0 mm | - | 311 W/m² | - |
| 1777626028 | 15° C | 41% | 1026.6 hPa | 0 mm | - | 315 W/m² | - |
| 1777625967 | 15° C | 41% | 1026.5 hPa | 0 mm | - | 315 W/m² | - |
| 1777625947 | 15° C | 41% | 1026.5 hPa | 0 mm | - | 315 W/m² | - |
| 1777625907 | 15° C | 42% | 1026.5 hPa | 0 mm | - | 315 W/m² | - |
| 1777625859 | 15° C | 43% | 1026.4 hPa | 0 mm | - | 304 W/m² | - |
| 1777625848 | 15° C | 43% | 1026.5 hPa | 0 mm | - | 313 W/m² | - |
| 1777625839 | 15° C | 43% | 1026.4 hPa | 0 mm | - | 304 W/m² | - |
| 1777625788 | 15° C | 43% | 1026.6 hPa | 0 mm | - | 311 W/m² | - |
| 1777625768 | 15° C | 43% | 1026.6 hPa | 0 mm | - | 311 W/m² | - |
| 1777625739 | 15° C | 45% | 1026.6 hPa | 0 mm | - | 301 W/m² | - |
| 1777625728 | 15° C | 43% | 1026.5 hPa | 0 mm | - | 309 W/m² | - |
| 1777625668 | 15° C | 43% | 1026.5 hPa | 0 mm | - | 309 W/m² | - |
| 1777625659 | 15° C | 46% | 1026.6 hPa | 0 mm | - | 299 W/m² | - |
| 1777625608 | 15° C | 43% | 1026.4 hPa | 0 mm | - | 304 W/m² | - |
| 1777625588 | 15° C | 43% | 1026.4 hPa | 0 mm | - | 304 W/m² | - |
| 1777625547 | 15° C | 43% | 1026.6 hPa | 0 mm | - | 302 W/m² | - |
* Rain latest hour (hover to see other rain measurements)
** Current wind speed in m/s (hover to see current wind gust speed)